sensor_id;sensor_type;location;lat;lon;timestamp;P1;durP1;ratioP1;P2;durP2;ratioP2
34060;SDS011;20336;-33.424;-70.638;2022-12-18T00:02:12;14.20;;;3.90;;
34060;SDS011;20336;-33.424;-70.638;2022-12-18T00:04:39;11.82;;;3.80;;
34060;SDS011;20336;-33.424;-70.638;2022-12-18T00:07:05;17.77;;;4.38;;
34060;SDS011;20336;-33.424;-70.638;2022-12-18T00:09:32;18.15;;;4.28;;
34060;SDS011;20336;-33.424;-70.638;2022-12-18T00:11:59;20.58;;;4.18;;
34060;SDS011;20336;-33.424;-70.638;2022-12-18T00:14:26;15.20;;;4.28;;
34060;SDS011;20336;-33.424;-70.638;2022-12-18T00:16:53;11.45;;;4.18;;
34060;SDS011;20336;-33.424;-70.638;2022-12-18T00:19:20;16.08;;;4.50;;
34060;SDS011;20336;-33.424;-70.638;2022-12-18T00:21:46;16.88;;;3.80;;
34060;SDS011;20336;-33.424;-70.638;2022-12-18T00:24:13;13.60;;;3.92;;
34060;SDS011;20336;-33.424;-70.638;2022-12-18T00:26:40;18.08;;;3.70;;
34060;SDS011;20336;-33.424;-70.638;2022-12-18T00:29:09;16.00;;;3.65;;
34060;SDS011;20336;-33.424;-70.638;2022-12-18T00:31:37;21.80;;;4.95;;
34060;SDS011;20336;-33.424;-70.638;2022-12-18T00:34:04;16.73;;;4.32;;
34060;SDS011;20336;-33.424;-70.638;2022-12-18T00:36:32;21.75;;;4.53;;
34060;SDS011;20336;-33.424;-70.638;2022-12-18T00:38:59;10.88;;;3.83;;
34060;SDS011;20336;-33.424;-70.638;2022-12-18T00:41:27;25.58;;;4.50;;
34060;SDS011;20336;-33.424;-70.638;2022-12-18T00:44:13;16.83;;;4.15;;
34060;SDS011;20336;-33.424;-70.638;2022-12-18T00:46:40;15.35;;;4.07;;
34060;SDS011;20336;-33.424;-70.638;2022-12-18T00:49:07;15.90;;;4.07;;
34060;SDS011;20336;-33.424;-70.638;2022-12-18T00:51:34;16.98;;;4.63;;
34060;SDS011;20336;-33.424;-70.638;2022-12-18T00:54:01;13.80;;;3.83;;
34060;SDS011;20336;-33.424;-70.638;2022-12-18T00:56:28;14.23;;;4.00;;
34060;SDS011;20336;-33.424;-70.638;2022-12-18T00:58:55;11.98;;;4.10;;
34060;SDS011;20336;-33.424;-70.638;2022-12-18T01:01:22;11.57;;;4.65;;
34060;SDS011;20336;-33.424;-70.638;2022-12-18T01:03:49;15.90;;;4.43;;
34060;SDS011;20336;-33.424;-70.638;2022-12-18T01:06:17;16.10;;;4.03;;
34060;SDS011;20336;-33.424;-70.638;2022-12-18T01:08:44;19.67;;;4.72;;
34060;SDS011;20336;-33.424;-70.638;2022-12-18T01:11:11;15.10;;;4.35;;
34060;SDS011;20336;-33.424;-70.638;2022-12-18T01:13:39;14.48;;;4.18;;
34060;SDS011;20336;-33.424;-70.638;2022-12-18T01:16:06;13.88;;;4.40;;
34060;SDS011;20336;-33.424;-70.638;2022-12-18T01:18:34;13.45;;;4.20;;
34060;SDS011;20336;-33.424;-70.638;2022-12-18T01:21:04;19.70;;;4.45;;
34060;SDS011;20336;-33.424;-70.638;2022-12-18T01:23:32;13.88;;;3.70;;
34060;SDS011;20336;-33.424;-70.638;2022-12-18T01:26:03;14.50;;;4.43;;
34060;SDS011;20336;-33.424;-70.638;2022-12-18T01:28:30;22.80;;;4.68;;
34060;SDS011;20336;-33.424;-70.638;2022-12-18T01:30:57;20.70;;;4.88;;
34060;SDS011;20336;-33.424;-70.638;2022-12-18T01:33:27;20.17;;;4.43;;
34060;SDS011;20336;-33.424;-70.638;2022-12-18T01:35:54;16.08;;;3.70;;
34060;SDS011;20336;-33.424;-70.638;2022-12-18T01:38:21;17.73;;;4.07;;
34060;SDS011;20336;-33.424;-70.638;2022-12-18T01:40:48;15.20;;;3.90;;
34060;SDS011;20336;-33.424;-70.638;2022-12-18T01:43:14;14.52;;;4.22;;
34060;SDS011;20336;-33.424;-70.638;2022-12-18T01:45:41;16.88;;;3.90;;
34060;SDS011;20336;-33.424;-70.638;2022-12-18T01:48:08;17.70;;;4.03;;
34060;SDS011;20336;-33.424;-70.638;2022-12-18T01:50:36;13.93;;;4.25;;
34060;SDS011;20336;-33.424;-70.638;2022-12-18T01:55:42;15.02;;;4.05;;
34060;SDS011;20336;-33.424;-70.638;2022-12-18T01:58:09;14.38;;;3.60;;
34060;SDS011;20336;-33.424;-70.638;2022-12-18T02:00:36;11.93;;;4.38;;
34060;SDS011;20336;-33.424;-70.638;2022-12-18T02:03:03;14.93;;;4.03;;
34060;SDS011;20336;-33.424;-70.638;2022-12-18T02:08:10;14.95;;;3.80;;
34060;SDS011;20336;-33.424;-70.638;2022-12-18T02:15:58;13.43;;;3.88;;
34060;SDS011;20336;-33.424;-70.638;2022-12-18T02:18:33;13.75;;;4.22;;
34060;SDS011;20336;-33.424;-70.638;2022-12-18T02:21:08;19.27;;;4.20;;
34060;SDS011;20336;-33.424;-70.638;2022-12-18T02:28:47;14.80;;;3.97;;
34060;SDS011;20336;-33.424;-70.638;2022-12-18T02:31:17;15.68;;;3.95;;
34060;SDS011;20336;-33.424;-70.638;2022-12-18T02:33:48;15.98;;;3.90;;
34060;SDS011;20336;-33.424;-70.638;2022-12-18T02:36:16;10.32;;;3.50;;
34060;SDS011;20336;-33.424;-70.638;2022-12-18T02:38:44;13.15;;;3.75;;
34060;SDS011;20336;-33.424;-70.638;2022-12-18T02:41:12;15.95;;;4.13;;
34060;SDS011;20336;-33.424;-70.638;2022-12-18T02:43:41;20.05;;;3.92;;
34060;SDS011;20336;-33.424;-70.638;2022-12-18T02:46:23;10.52;;;3.47;;
34060;SDS011;20336;-33.424;-70.638;2022-12-18T02:48:52;17.00;;;4.68;;
34060;SDS011;20336;-33.424;-70.638;2022-12-18T02:51:29;15.40;;;4.05;;
34060;SDS011;20336;-33.424;-70.638;2022-12-18T02:53:58;13.80;;;3.53;;
34060;SDS011;20336;-33.424;-70.638;2022-12-18T02:56:46;16.67;;;4.00;;
34060;SDS011;20336;-33.424;-70.638;2022-12-18T02:59:16;13.70;;;4.47;;
34060;SDS011;20336;-33.424;-70.638;2022-12-18T03:01:51;15.70;;;4.10;;
34060;SDS011;20336;-33.424;-70.638;2022-12-18T03:06:48;12.73;;;4.07;;
34060;SDS011;20336;-33.424;-70.638;2022-12-18T03:09:18;19.13;;;3.80;;
34060;SDS011;20336;-33.424;-70.638;2022-12-18T03:11:46;19.85;;;3.47;;
34060;SDS011;20336;-33.424;-70.638;2022-12-18T03:14:33;13.40;;;4.50;;
34060;SDS011;20336;-33.424;-70.638;2022-12-18T03:17:01;16.45;;;4.25;;
34060;SDS011;20336;-33.424;-70.638;2022-12-18T03:19:28;12.77;;;3.65;;
34060;SDS011;20336;-33.424;-70.638;2022-12-18T03:21:56;15.15;;;3.90;;
34060;SDS011;20336;-33.424;-70.638;2022-12-18T03:24:24;15.80;;;3.95;;
34060;SDS011;20336;-33.424;-70.638;2022-12-18T03:26:54;16.45;;;4.75;;
34060;SDS011;20336;-33.424;-70.638;2022-12-18T03:29:22;12.30;;;4.20;;
34060;SDS011;20336;-33.424;-70.638;2022-12-18T03:31:54;16.38;;;4.35;;
34060;SDS011;20336;-33.424;-70.638;2022-12-18T03:34:23;12.98;;;4.43;;
34060;SDS011;20336;-33.424;-70.638;2022-12-18T03:36:52;17.70;;;4.67;;
34060;SDS011;20336;-33.424;-70.638;2022-12-18T03:39:19;16.67;;;4.43;;
34060;SDS011;20336;-33.424;-70.638;2022-12-18T03:41:58;12.40;;;3.63;;
34060;SDS011;20336;-33.424;-70.638;2022-12-18T03:44:31;15.60;;;4.37;;
34060;SDS011;20336;-33.424;-70.638;2022-12-18T03:49:39;12.93;;;3.87;;
34060;SDS011;20336;-33.424;-70.638;2022-12-18T03:54:46;15.50;;;4.37;;
34060;SDS011;20336;-33.424;-70.638;2022-12-18T03:57:31;11.43;;;3.43;;
34060;SDS011;20336;-33.424;-70.638;2022-12-18T04:00:06;16.73;;;4.10;;
34060;SDS011;20336;-33.424;-70.638;2022-12-18T04:02:33;13.50;;;3.60;;
34060;SDS011;20336;-33.424;-70.638;2022-12-18T04:05:03;13.50;;;4.33;;
34060;SDS011;20336;-33.424;-70.638;2022-12-18T04:07:31;18.17;;;4.20;;
34060;SDS011;20336;-33.424;-70.638;2022-12-18T04:09:58;13.23;;;4.23;;
34060;SDS011;20336;-33.424;-70.638;2022-12-18T04:12:28;11.80;;;4.03;;
34060;SDS011;20336;-33.424;-70.638;2022-12-18T04:14:55;14.00;;;4.20;;
34060;SDS011;20336;-33.424;-70.638;2022-12-18T04:17:22;19.93;;;4.70;;
34060;SDS011;20336;-33.424;-70.638;2022-12-18T04:19:49;10.77;;;4.07;;
34060;SDS011;20336;-33.424;-70.638;2022-12-18T04:22:16;15.60;;;4.50;;
34060;SDS011;20336;-33.424;-70.638;2022-12-18T04:24:43;17.63;;;4.20;;
34060;SDS011;20336;-33.424;-70.638;2022-12-18T04:27:09;17.83;;;5.20;;
34060;SDS011;20336;-33.424;-70.638;2022-12-18T04:29:36;12.50;;;4.33;;
34060;SDS011;20336;-33.424;-70.638;2022-12-18T04:32:03;13.13;;;3.80;;
34060;SDS011;20336;-33.424;-70.638;2022-12-18T04:34:30;14.83;;;4.40;;
34060;SDS011;20336;-33.424;-70.638;2022-12-18T04:36:57;20.13;;;4.13;;
34060;SDS011;20336;-33.424;-70.638;2022-12-18T04:39:24;12.40;;;4.23;;
34060;SDS011;20336;-33.424;-70.638;2022-12-18T04:41:51;15.47;;;4.17;;
34060;SDS011;20336;-33.424;-70.638;2022-12-18T04:44:17;12.23;;;3.90;;
34060;SDS011;20336;-33.424;-70.638;2022-12-18T04:46:44;13.13;;;3.90;;
34060;SDS011;20336;-33.424;-70.638;2022-12-18T04:49:11;11.13;;;3.67;;
34060;SDS011;20336;-33.424;-70.638;2022-12-18T04:51:38;12.47;;;4.00;;
34060;SDS011;20336;-33.424;-70.638;2022-12-18T04:54:05;11.67;;;3.87;;
34060;SDS011;20336;-33.424;-70.638;2022-12-18T04:56:32;8.47;;;4.10;;
34060;SDS011;20336;-33.424;-70.638;2022-12-18T04:58:59;17.90;;;4.80;;
34060;SDS011;20336;-33.424;-70.638;2022-12-18T05:01:26;14.87;;;4.13;;
34060;SDS011;20336;-33.424;-70.638;2022-12-18T05:03:52;13.03;;;3.87;;
34060;SDS011;20336;-33.424;-70.638;2022-12-18T05:06:19;10.97;;;3.37;;
34060;SDS011;20336;-33.424;-70.638;2022-12-18T05:08:48;18.27;;;4.60;;
34060;SDS011;20336;-33.424;-70.638;2022-12-18T05:11:15;12.00;;;3.80;;
34060;SDS011;20336;-33.424;-70.638;2022-12-18T05:13:43;13.83;;;3.60;;
34060;SDS011;20336;-33.424;-70.638;2022-12-18T05:16:10;9.80;;;4.00;;
34060;SDS011;20336;-33.424;-70.638;2022-12-18T05:18:37;8.90;;;4.07;;
34060;SDS011;20336;-33.424;-70.638;2022-12-18T05:21:04;14.03;;;4.10;;
34060;SDS011;20336;-33.424;-70.638;2022-12-18T05:23:31;14.73;;;3.83;;
34060;SDS011;20336;-33.424;-70.638;2022-12-18T05:26:01;13.60;;;3.73;;
34060;SDS011;20336;-33.424;-70.638;2022-12-18T05:28:29;11.03;;;4.10;;
34060;SDS011;20336;-33.424;-70.638;2022-12-18T05:30:57;11.67;;;4.33;;
34060;SDS011;20336;-33.424;-70.638;2022-12-18T05:33:24;12.27;;;4.60;;
34060;SDS011;20336;-33.424;-70.638;2022-12-18T05:35:56;11.23;;;3.80;;
34060;SDS011;20336;-33.424;-70.638;2022-12-18T05:38:23;21.43;;;4.00;;
34060;SDS011;20336;-33.424;-70.638;2022-12-18T05:40:50;13.10;;;4.40;;
34060;SDS011;20336;-33.424;-70.638;2022-12-18T05:43:18;10.53;;;4.00;;
34060;SDS011;20336;-33.424;-70.638;2022-12-18T05:45:45;10.53;;;4.00;;
34060;SDS011;20336;-33.424;-70.638;2022-12-18T05:48:12;9.33;;;3.30;;
34060;SDS011;20336;-33.424;-70.638;2022-12-18T05:50:39;16.73;;;4.00;;
34060;SDS011;20336;-33.424;-70.638;2022-12-18T05:53:07;15.07;;;4.30;;
34060;SDS011;20336;-33.424;-70.638;2022-12-18T05:55:34;22.03;;;5.77;;
34060;SDS011;20336;-33.424;-70.638;2022-12-18T05:58:02;18.00;;;5.87;;
34060;SDS011;20336;-33.424;-70.638;2022-12-18T06:00:29;20.40;;;6.00;;
34060;SDS011;20336;-33.424;-70.638;2022-12-18T06:02:56;18.20;;;5.27;;
34060;SDS011;20336;-33.424;-70.638;2022-12-18T06:05:22;18.13;;;5.20;;
34060;SDS011;20336;-33.424;-70.638;2022-12-18T06:07:49;13.70;;;4.87;;
34060;SDS011;20336;-33.424;-70.638;2022-12-18T06:10:16;12.83;;;4.73;;
34060;SDS011;20336;-33.424;-70.638;2022-12-18T06:12:43;17.37;;;5.00;;
34060;SDS011;20336;-33.424;-70.638;2022-12-18T06:15:10;16.43;;;4.57;;
34060;SDS011;20336;-33.424;-70.638;2022-12-18T06:17:37;17.97;;;5.20;;
34060;SDS011;20336;-33.424;-70.638;2022-12-18T06:20:04;16.77;;;5.07;;
34060;SDS011;20336;-33.424;-70.638;2022-12-18T06:22:32;16.17;;;4.93;;
34060;SDS011;20336;-33.424;-70.638;2022-12-18T06:25:00;16.43;;;4.90;;
34060;SDS011;20336;-33.424;-70.638;2022-12-18T06:27:27;19.50;;;5.53;;
34060;SDS011;20336;-33.424;-70.638;2022-12-18T06:29:54;13.47;;;4.80;;
34060;SDS011;20336;-33.424;-70.638;2022-12-18T06:32:21;15.40;;;4.40;;
34060;SDS011;20336;-33.424;-70.638;2022-12-18T06:34:47;12.30;;;4.70;;
34060;SDS011;20336;-33.424;-70.638;2022-12-18T06:37:14;14.33;;;4.73;;
34060;SDS011;20336;-33.424;-70.638;2022-12-18T06:39:41;16.87;;;4.60;;
34060;SDS011;20336;-33.424;-70.638;2022-12-18T06:42:08;13.03;;;4.90;;
34060;SDS011;20336;-33.424;-70.638;2022-12-18T06:44:35;14.10;;;4.83;;
34060;SDS011;20336;-33.424;-70.638;2022-12-18T06:47:02;14.73;;;5.20;;
34060;SDS011;20336;-33.424;-70.638;2022-12-18T06:49:29;16.63;;;5.10;;
34060;SDS011;20336;-33.424;-70.638;2022-12-18T06:51:56;17.43;;;4.57;;
34060;SDS011;20336;-33.424;-70.638;2022-12-18T06:54:22;19.57;;;4.97;;
34060;SDS011;20336;-33.424;-70.638;2022-12-18T06:56:49;20.17;;;5.17;;
34060;SDS011;20336;-33.424;-70.638;2022-12-18T06:59:16;13.90;;;4.73;;
34060;SDS011;20336;-33.424;-70.638;2022-12-18T07:01:43;14.57;;;4.87;;
34060;SDS011;20336;-33.424;-70.638;2022-12-18T07:04:10;12.93;;;4.63;;
34060;SDS011;20336;-33.424;-70.638;2022-12-18T07:06:37;18.63;;;4.83;;
34060;SDS011;20336;-33.424;-70.638;2022-12-18T07:09:04;11.23;;;4.37;;
34060;SDS011;20336;-33.424;-70.638;2022-12-18T07:11:32;14.93;;;4.70;;
34060;SDS011;20336;-33.424;-70.638;2022-12-18T07:13:59;13.33;;;4.63;;
34060;SDS011;20336;-33.424;-70.638;2022-12-18T07:16:26;18.93;;;5.20;;
34060;SDS011;20336;-33.424;-70.638;2022-12-18T07:18:56;12.57;;;4.33;;
34060;SDS011;20336;-33.424;-70.638;2022-12-18T07:21:23;15.47;;;5.07;;
34060;SDS011;20336;-33.424;-70.638;2022-12-18T07:23:50;14.77;;;4.73;;
34060;SDS011;20336;-33.424;-70.638;2022-12-18T07:26:18;17.43;;;4.53;;
34060;SDS011;20336;-33.424;-70.638;2022-12-18T07:28:46;13.60;;;4.90;;
34060;SDS011;20336;-33.424;-70.638;2022-12-18T07:31:14;13.17;;;4.53;;
34060;SDS011;20336;-33.424;-70.638;2022-12-18T07:33:42;11.33;;;4.17;;
34060;SDS011;20336;-33.424;-70.638;2022-12-18T07:36:09;16.13;;;4.73;;
34060;SDS011;20336;-33.424;-70.638;2022-12-18T07:38:36;14.80;;;4.67;;
34060;SDS011;20336;-33.424;-70.638;2022-12-18T07:41:07;16.33;;;4.80;;
34060;SDS011;20336;-33.424;-70.638;2022-12-18T07:43:34;14.93;;;5.37;;
34060;SDS011;20336;-33.424;-70.638;2022-12-18T07:46:01;13.60;;;4.73;;
34060;SDS011;20336;-33.424;-70.638;2022-12-18T07:48:28;15.47;;;5.10;;
34060;SDS011;20336;-33.424;-70.638;2022-12-18T07:50:59;14.80;;;5.10;;
34060;SDS011;20336;-33.424;-70.638;2022-12-18T07:53:26;14.20;;;4.83;;
34060;SDS011;20336;-33.424;-70.638;2022-12-18T07:55:56;19.50;;;4.73;;
34060;SDS011;20336;-33.424;-70.638;2022-12-18T07:58:23;15.17;;;4.43;;
34060;SDS011;20336;-33.424;-70.638;2022-12-18T08:00:50;12.20;;;4.77;;
34060;SDS011;20336;-33.424;-70.638;2022-12-18T08:03:17;14.03;;;5.13;;
34060;SDS011;20336;-33.424;-70.638;2022-12-18T08:05:44;14.57;;;5.60;;
34060;SDS011;20336;-33.424;-70.638;2022-12-18T08:08:11;16.03;;;5.20;;
34060;SDS011;20336;-33.424;-70.638;2022-12-18T08:10:38;10.73;;;4.60;;
34060;SDS011;20336;-33.424;-70.638;2022-12-18T08:13:05;15.93;;;5.23;;
34060;SDS011;20336;-33.424;-70.638;2022-12-18T08:15:32;19.17;;;4.93;;
34060;SDS011;20336;-33.424;-70.638;2022-12-18T08:17:59;14.47;;;5.07;;
34060;SDS011;20336;-33.424;-70.638;2022-12-18T08:20:26;16.73;;;4.90;;
34060;SDS011;20336;-33.424;-70.638;2022-12-18T08:22:53;16.60;;;4.57;;
34060;SDS011;20336;-33.424;-70.638;2022-12-18T08:25:20;15.83;;;4.63;;
34060;SDS011;20336;-33.424;-70.638;2022-12-18T08:27:47;18.77;;;5.27;;
34060;SDS011;20336;-33.424;-70.638;2022-12-18T08:30:13;15.13;;;4.93;;
34060;SDS011;20336;-33.424;-70.638;2022-12-18T08:32:40;15.80;;;5.30;;
34060;SDS011;20336;-33.424;-70.638;2022-12-18T08:35:07;15.57;;;5.20;;
34060;SDS011;20336;-33.424;-70.638;2022-12-18T08:37:37;17.83;;;4.93;;
34060;SDS011;20336;-33.424;-70.638;2022-12-18T08:40:04;13.77;;;4.73;;
34060;SDS011;20336;-33.424;-70.638;2022-12-18T08:42:30;17.73;;;5.07;;
34060;SDS011;20336;-33.424;-70.638;2022-12-18T08:45:15;15.80;;;5.20;;
34060;SDS011;20336;-33.424;-70.638;2022-12-18T08:47:42;21.47;;;5.60;;
34060;SDS011;20336;-33.424;-70.638;2022-12-18T08:50:09;13.43;;;4.70;;
34060;SDS011;20336;-33.424;-70.638;2022-12-18T08:52:37;16.83;;;5.47;;
34060;SDS011;20336;-33.424;-70.638;2022-12-18T08:55:04;22.27;;;6.13;;
34060;SDS011;20336;-33.424;-70.638;2022-12-18T08:57:31;14.27;;;4.67;;
34060;SDS011;20336;-33.424;-70.638;2022-12-18T08:59:57;13.13;;;5.03;;
34060;SDS011;20336;-33.424;-70.638;2022-12-18T09:02:25;21.63;;;5.33;;
34060;SDS011;20336;-33.424;-70.638;2022-12-18T09:04:51;19.83;;;5.37;;
34060;SDS011;20336;-33.424;-70.638;2022-12-18T09:07:18;16.50;;;5.37;;
34060;SDS011;20336;-33.424;-70.638;2022-12-18T09:09:45;14.87;;;5.30;;
34060;SDS011;20336;-33.424;-70.638;2022-12-18T09:12:12;13.33;;;4.97;;
34060;SDS011;20336;-33.424;-70.638;2022-12-18T09:14:39;16.23;;;5.73;;
34060;SDS011;20336;-33.424;-70.638;2022-12-18T09:17:05;86.00;;;10.90;;
34060;SDS011;20336;-33.424;-70.638;2022-12-18T09:19:32;33.40;;;6.33;;
34060;SDS011;20336;-33.424;-70.638;2022-12-18T09:21:59;24.87;;;6.30;;
34060;SDS011;20336;-33.424;-70.638;2022-12-18T09:24:26;40.53;;;6.40;;
34060;SDS011;20336;-33.424;-70.638;2022-12-18T09:26:53;21.43;;;5.53;;
34060;SDS011;20336;-33.424;-70.638;2022-12-18T09:29:20;16.23;;;5.87;;
34060;SDS011;20336;-33.424;-70.638;2022-12-18T09:31:47;15.73;;;4.70;;
34060;SDS011;20336;-33.424;-70.638;2022-12-18T09:34:15;14.37;;;5.03;;
34060;SDS011;20336;-33.424;-70.638;2022-12-18T09:36:42;11.87;;;4.63;;
34060;SDS011;20336;-33.424;-70.638;2022-12-18T09:39:09;13.23;;;4.77;;
34060;SDS011;20336;-33.424;-70.638;2022-12-18T09:41:43;18.40;;;5.40;;
34060;SDS011;20336;-33.424;-70.638;2022-12-18T09:46:46;18.93;;;5.70;;
34060;SDS011;20336;-33.424;-70.638;2022-12-18T09:49:18;16.80;;;5.63;;
34060;SDS011;20336;-33.424;-70.638;2022-12-18T09:52:02;15.10;;;5.40;;
34060;SDS011;20336;-33.424;-70.638;2022-12-18T09:54:38;20.03;;;5.80;;
34060;SDS011;20336;-33.424;-70.638;2022-12-18T09:57:17;20.00;;;5.67;;
34060;SDS011;20336;-33.424;-70.638;2022-12-18T09:59:46;14.70;;;5.17;;
34060;SDS011;20336;-33.424;-70.638;2022-12-18T10:02:15;19.93;;;6.13;;
34060;SDS011;20336;-33.424;-70.638;2022-12-18T10:04:43;17.07;;;6.13;;
34060;SDS011;20336;-33.424;-70.638;2022-12-18T10:07:21;23.63;;;6.70;;
34060;SDS011;20336;-33.424;-70.638;2022-12-18T10:10:01;17.50;;;6.30;;
34060;SDS011;20336;-33.424;-70.638;2022-12-18T10:12:41;15.23;;;5.53;;
34060;SDS011;20336;-33.424;-70.638;2022-12-18T10:18:01;15.80;;;5.53;;
34060;SDS011;20336;-33.424;-70.638;2022-12-18T10:22:58;15.97;;;5.97;;
34060;SDS011;20336;-33.424;-70.638;2022-12-18T10:25:31;12.63;;;5.37;;
34060;SDS011;20336;-33.424;-70.638;2022-12-18T10:28:07;18.60;;;5.83;;
34060;SDS011;20336;-33.424;-70.638;2022-12-18T10:30:37;24.03;;;5.63;;
34060;SDS011;20336;-33.424;-70.638;2022-12-18T10:33:04;14.83;;;5.33;;
34060;SDS011;20336;-33.424;-70.638;2022-12-18T10:35:31;12.33;;;5.17;;
34060;SDS011;20336;-33.424;-70.638;2022-12-18T10:37:59;17.23;;;6.00;;
34060;SDS011;20336;-33.424;-70.638;2022-12-18T10:40:26;11.83;;;5.20;;
34060;SDS011;20336;-33.424;-70.638;2022-12-18T10:43:03;22.13;;;6.60;;
34060;SDS011;20336;-33.424;-70.638;2022-12-18T10:45:30;21.00;;;7.10;;
34060;SDS011;20336;-33.424;-70.638;2022-12-18T10:47:57;20.03;;;6.30;;
34060;SDS011;20336;-33.424;-70.638;2022-12-18T10:50:32;15.57;;;5.87;;
34060;SDS011;20336;-33.424;-70.638;2022-12-18T10:53:00;15.17;;;6.30;;
34060;SDS011;20336;-33.424;-70.638;2022-12-18T10:55:30;18.27;;;6.50;;
34060;SDS011;20336;-33.424;-70.638;2022-12-18T10:58:12;18.03;;;6.60;;
34060;SDS011;20336;-33.424;-70.638;2022-12-18T11:00:39;23.03;;;7.00;;
34060;SDS011;20336;-33.424;-70.638;2022-12-18T11:06:02;18.30;;;6.90;;
34060;SDS011;20336;-33.424;-70.638;2022-12-18T11:08:30;24.43;;;8.43;;
34060;SDS011;20336;-33.424;-70.638;2022-12-18T11:10:56;23.40;;;6.63;;
34060;SDS011;20336;-33.424;-70.638;2022-12-18T11:13:24;19.00;;;7.00;;
34060;SDS011;20336;-33.424;-70.638;2022-12-18T11:15:52;25.33;;;7.20;;
34060;SDS011;20336;-33.424;-70.638;2022-12-18T11:20:53;21.37;;;7.37;;
34060;SDS011;20336;-33.424;-70.638;2022-12-18T11:23:21;24.37;;;8.17;;
34060;SDS011;20336;-33.424;-70.638;2022-12-18T11:26:01;16.97;;;6.77;;
34060;SDS011;20336;-33.424;-70.638;2022-12-18T11:28:41;24.37;;;7.17;;
34060;SDS011;20336;-33.424;-70.638;2022-12-18T11:31:28;21.37;;;7.03;;
34060;SDS011;20336;-33.424;-70.638;2022-12-18T11:34:00;23.17;;;7.07;;
34060;SDS011;20336;-33.424;-70.638;2022-12-18T11:36:35;20.93;;;7.10;;
34060;SDS011;20336;-33.424;-70.638;2022-12-18T11:39:07;20.73;;;6.72;;
34060;SDS011;20336;-33.424;-70.638;2022-12-18T11:41:38;22.17;;;8.07;;
34060;SDS011;20336;-33.424;-70.638;2022-12-18T11:47:30;25.58;;;8.50;;
34060;SDS011;20336;-33.424;-70.638;2022-12-18T11:50:00;23.98;;;8.02;;
34060;SDS011;20336;-33.424;-70.638;2022-12-18T11:52:37;22.35;;;8.45;;
34060;SDS011;20336;-33.424;-70.638;2022-12-18T11:55:10;22.73;;;8.18;;
34060;SDS011;20336;-33.424;-70.638;2022-12-18T12:00:22;24.75;;;7.90;;
34060;SDS011;20336;-33.424;-70.638;2022-12-18T12:13:29;23.38;;;8.23;;
34060;SDS011;20336;-33.424;-70.638;2022-12-18T12:16:20;18.70;;;7.82;;
34060;SDS011;20336;-33.424;-70.638;2022-12-18T12:21:24;23.63;;;9.10;;
34060;SDS011;20336;-33.424;-70.638;2022-12-18T12:23:59;23.67;;;8.57;;
34060;SDS011;20336;-33.424;-70.638;2022-12-18T12:26:31;16.60;;;8.18;;
34060;SDS011;20336;-33.424;-70.638;2022-12-18T12:39:18;23.70;;;10.35;;
34060;SDS011;20336;-33.424;-70.638;2022-12-18T12:41:46;24.13;;;10.00;;
34060;SDS011;20336;-33.424;-70.638;2022-12-18T12:44:35;23.35;;;9.38;;
34060;SDS011;20336;-33.424;-70.638;2022-12-18T12:47:18;21.67;;;10.30;;
34060;SDS011;20336;-33.424;-70.638;2022-12-18T12:49:47;25.42;;;9.07;;
34060;SDS011;20336;-33.424;-70.638;2022-12-18T12:52:35;23.75;;;8.75;;
34060;SDS011;20336;-33.424;-70.638;2022-12-18T12:55:02;21.95;;;9.88;;
34060;SDS011;20336;-33.424;-70.638;2022-12-18T12:57:40;20.17;;;10.07;;
34060;SDS011;20336;-33.424;-70.638;2022-12-18T13:00:11;25.27;;;9.98;;
34060;SDS011;20336;-33.424;-70.638;2022-12-18T13:07:59;19.40;;;9.10;;
34060;SDS011;20336;-33.424;-70.638;2022-12-18T13:10:31;21.40;;;9.95;;
34060;SDS011;20336;-33.424;-70.638;2022-12-18T13:13:07;27.88;;;10.57;;
34060;SDS011;20336;-33.424;-70.638;2022-12-18T13:20:42;27.10;;;11.35;;
34060;SDS011;20336;-33.424;-70.638;2022-12-18T13:25:56;29.58;;;11.23;;
34060;SDS011;20336;-33.424;-70.638;2022-12-18T13:31:08;32.70;;;11.88;;
34060;SDS011;20336;-33.424;-70.638;2022-12-18T13:33:52;30.85;;;10.63;;
34060;SDS011;20336;-33.424;-70.638;2022-12-18T13:36:28;30.05;;;11.20;;
34060;SDS011;20336;-33.424;-70.638;2022-12-18T13:41:38;24.13;;;11.18;;
34060;SDS011;20336;-33.424;-70.638;2022-12-18T13:44:11;28.25;;;10.98;;
34060;SDS011;20336;-33.424;-70.638;2022-12-18T13:46:42;36.83;;;11.50;;
34060;SDS011;20336;-33.424;-70.638;2022-12-18T13:51:48;21.75;;;10.00;;
34060;SDS011;20336;-33.424;-70.638;2022-12-18T13:57:01;27.20;;;10.65;;
34060;SDS011;20336;-33.424;-70.638;2022-12-18T13:59:34;21.38;;;9.13;;
34060;SDS011;20336;-33.424;-70.638;2022-12-18T14:02:34;28.50;;;9.65;;
34060;SDS011;20336;-33.424;-70.638;2022-12-18T14:04:54;26.88;;;11.43;;
34060;SDS011;20336;-33.424;-70.638;2022-12-18T14:07:24;23.05;;;9.00;;
34060;SDS011;20336;-33.424;-70.638;2022-12-18T14:09:53;29.65;;;9.77;;
34060;SDS011;20336;-33.424;-70.638;2022-12-18T14:12:23;22.70;;;9.65;;
34060;SDS011;20336;-33.424;-70.638;2022-12-18T14:15:14;25.17;;;9.00;;
34060;SDS011;20336;-33.424;-70.638;2022-12-18T14:17:46;22.92;;;9.77;;
34060;SDS011;20336;-33.424;-70.638;2022-12-18T14:20:14;29.35;;;10.00;;
34060;SDS011;20336;-33.424;-70.638;2022-12-18T14:22:45;21.30;;;9.05;;
34060;SDS011;20336;-33.424;-70.638;2022-12-18T14:27:47;20.25;;;8.23;;
34060;SDS011;20336;-33.424;-70.638;2022-12-18T14:33:10;15.77;;;7.53;;
34060;SDS011;20336;-33.424;-70.638;2022-12-18T14:35:38;23.42;;;8.85;;
34060;SDS011;20336;-33.424;-70.638;2022-12-18T14:38:22;31.27;;;9.45;;
34060;SDS011;20336;-33.424;-70.638;2022-12-18T14:40:53;25.05;;;8.70;;
34060;SDS011;20336;-33.424;-70.638;2022-12-18T14:43:21;24.58;;;8.00;;
34060;SDS011;20336;-33.424;-70.638;2022-12-18T14:45:48;19.40;;;7.55;;
34060;SDS011;20336;-33.424;-70.638;2022-12-18T14:48:16;22.73;;;7.97;;
34060;SDS011;20336;-33.424;-70.638;2022-12-18T14:50:44;19.27;;;7.32;;
34060;SDS011;20336;-33.424;-70.638;2022-12-18T14:53:54;20.30;;;8.77;;
34060;SDS011;20336;-33.424;-70.638;2022-12-18T14:56:02;17.88;;;7.53;;
34060;SDS011;20336;-33.424;-70.638;2022-12-18T14:58:29;14.52;;;7.43;;
34060;SDS011;20336;-33.424;-70.638;2022-12-18T15:00:56;22.00;;;7.90;;
34060;SDS011;20336;-33.424;-70.638;2022-12-18T15:03:23;22.80;;;7.88;;
34060;SDS011;20336;-33.424;-70.638;2022-12-18T15:05:50;19.92;;;7.05;;
34060;SDS011;20336;-33.424;-70.638;2022-12-18T15:08:30;20.88;;;8.80;;
34060;SDS011;20336;-33.424;-70.638;2022-12-18T15:10:57;17.52;;;7.18;;
34060;SDS011;20336;-33.424;-70.638;2022-12-18T15:13:24;21.33;;;7.13;;
34060;SDS011;20336;-33.424;-70.638;2022-12-18T15:15:52;23.42;;;8.32;;
34060;SDS011;20336;-33.424;-70.638;2022-12-18T15:18:20;23.70;;;8.77;;
34060;SDS011;20336;-33.424;-70.638;2022-12-18T15:20:49;14.15;;;7.15;;
34060;SDS011;20336;-33.424;-70.638;2022-12-18T15:23:17;20.08;;;7.65;;
34060;SDS011;20336;-33.424;-70.638;2022-12-18T15:25:45;15.07;;;7.05;;
34060;SDS011;20336;-33.424;-70.638;2022-12-18T15:28:17;16.58;;;6.82;;
34060;SDS011;20336;-33.424;-70.638;2022-12-18T15:31:02;17.83;;;7.53;;
34060;SDS011;20336;-33.424;-70.638;2022-12-18T15:33:31;13.38;;;6.60;;
34060;SDS011;20336;-33.424;-70.638;2022-12-18T15:35:58;20.30;;;7.95;;
34060;SDS011;20336;-33.424;-70.638;2022-12-18T15:38:25;17.52;;;6.85;;
34060;SDS011;20336;-33.424;-70.638;2022-12-18T15:40:53;19.90;;;7.15;;
34060;SDS011;20336;-33.424;-70.638;2022-12-18T15:43:21;16.65;;;6.78;;
34060;SDS011;20336;-33.424;-70.638;2022-12-18T15:46:01;18.17;;;7.47;;